sensor_id;sensor_type;location;lat;lon;timestamp;P1;durP1;ratioP1;P2;durP2;ratioP2
13388;SDS011;6764;53.250;10.410;2023-08-31T00:02:11;11.20;;;10.20;;
13388;SDS011;6764;53.250;10.410;2023-08-31T00:04:37;10.40;;;9.50;;
13388;SDS011;6764;53.250;10.410;2023-08-31T00:07:03;11.32;;;10.30;;
13388;SDS011;6764;53.250;10.410;2023-08-31T00:09:28;10.75;;;9.75;;
13388;SDS011;6764;53.250;10.410;2023-08-31T00:11:54;10.38;;;9.45;;
13388;SDS011;6764;53.250;10.410;2023-08-31T00:14:21;10.13;;;9.10;;
13388;SDS011;6764;53.250;10.410;2023-08-31T00:16:48;10.37;;;9.47;;
13388;SDS011;6764;53.250;10.410;2023-08-31T00:19:15;10.40;;;9.32;;
13388;SDS011;6764;53.250;10.410;2023-08-31T00:21:40;10.15;;;8.98;;
13388;SDS011;6764;53.250;10.410;2023-08-31T00:24:06;10.35;;;9.43;;
13388;SDS011;6764;53.250;10.410;2023-08-31T00:26:33;10.18;;;9.27;;
13388;SDS011;6764;53.250;10.410;2023-08-31T00:28:59;10.20;;;9.20;;
13388;SDS011;6764;53.250;10.410;2023-08-31T00:31:24;10.53;;;9.57;;
13388;SDS011;6764;53.250;10.410;2023-08-31T00:33:52;10.02;;;9.13;;
13388;SDS011;6764;53.250;10.410;2023-08-31T00:36:18;10.15;;;9.18;;
13388;SDS011;6764;53.250;10.410;2023-08-31T00:38:43;11.02;;;9.93;;
13388;SDS011;6764;53.250;10.410;2023-08-31T00:41:09;11.48;;;9.30;;
13388;SDS011;6764;53.250;10.410;2023-08-31T00:43:35;10.68;;;9.68;;
13388;SDS011;6764;53.250;10.410;2023-08-31T00:46:01;11.15;;;10.05;;
13388;SDS011;6764;53.250;10.410;2023-08-31T00:48:27;10.88;;;9.85;;
13388;SDS011;6764;53.250;10.410;2023-08-31T00:50:53;10.32;;;9.43;;
13388;SDS011;6764;53.250;10.410;2023-08-31T00:53:19;10.70;;;9.52;;
13388;SDS011;6764;53.250;10.410;2023-08-31T00:55:45;11.20;;;10.20;;
13388;SDS011;6764;53.250;10.410;2023-08-31T00:58:12;11.30;;;10.30;;
13388;SDS011;6764;53.250;10.410;2023-08-31T01:03:19;10.67;;;9.67;;
13388;SDS011;6764;53.250;10.410;2023-08-31T01:06:18;10.83;;;9.83;;
13388;SDS011;6764;53.250;10.410;2023-08-31T01:09:21;11.05;;;9.25;;
13388;SDS011;6764;53.250;10.410;2023-08-31T01:14:33;11.10;;;10.00;;
13388;SDS011;6764;53.250;10.410;2023-08-31T01:17:04;11.02;;;10.02;;
13388;SDS011;6764;53.250;10.410;2023-08-31T01:21:57;10.82;;;9.43;;
13388;SDS011;6764;53.250;10.410;2023-08-31T01:24:28;12.63;;;10.23;;
13388;SDS011;6764;53.250;10.410;2023-08-31T01:26:55;10.83;;;9.83;;
13388;SDS011;6764;53.250;10.410;2023-08-31T01:29:21;11.07;;;9.93;;
13388;SDS011;6764;53.250;10.410;2023-08-31T01:31:48;11.27;;;10.30;;
13388;SDS011;6764;53.250;10.410;2023-08-31T01:34:13;12.43;;;11.20;;
13388;SDS011;6764;53.250;10.410;2023-08-31T01:36:41;12.10;;;10.90;;
13388;SDS011;6764;53.250;10.410;2023-08-31T01:41:57;11.90;;;10.47;;
13388;SDS011;6764;53.250;10.410;2023-08-31T01:44:26;11.43;;;10.30;;
13388;SDS011;6764;53.250;10.410;2023-08-31T01:46:54;10.77;;;9.68;;
13388;SDS011;6764;53.250;10.410;2023-08-31T01:49:22;10.73;;;9.73;;
13388;SDS011;6764;53.250;10.410;2023-08-31T01:51:49;10.87;;;9.73;;
13388;SDS011;6764;53.250;10.410;2023-08-31T01:54:14;11.30;;;10.13;;
13388;SDS011;6764;53.250;10.410;2023-08-31T01:56:41;11.03;;;9.93;;
13388;SDS011;6764;53.250;10.410;2023-08-31T01:59:06;10.73;;;9.67;;
13388;SDS011;6764;53.250;10.410;2023-08-31T02:01:32;11.13;;;10.03;;
13388;SDS011;6764;53.250;10.410;2023-08-31T02:03:58;11.43;;;10.33;;
13388;SDS011;6764;53.250;10.410;2023-08-31T02:06:24;10.63;;;9.63;;
13388;SDS011;6764;53.250;10.410;2023-08-31T02:08:49;12.50;;;10.37;;
13388;SDS011;6764;53.250;10.410;2023-08-31T02:11:15;10.00;;;9.00;;
13388;SDS011;6764;53.250;10.410;2023-08-31T02:13:41;10.97;;;9.67;;
13388;SDS011;6764;53.250;10.410;2023-08-31T02:16:07;11.40;;;10.13;;
13388;SDS011;6764;53.250;10.410;2023-08-31T02:18:32;10.73;;;9.13;;
13388;SDS011;6764;53.250;10.410;2023-08-31T02:20:58;12.50;;;8.73;;
13388;SDS011;6764;53.250;10.410;2023-08-31T02:23:24;9.87;;;8.90;;
13388;SDS011;6764;53.250;10.410;2023-08-31T02:25:49;10.83;;;9.03;;
13388;SDS011;6764;53.250;10.410;2023-08-31T02:28:15;10.37;;;8.53;;
13388;SDS011;6764;53.250;10.410;2023-08-31T02:30:43;9.10;;;8.20;;
13388;SDS011;6764;53.250;10.410;2023-08-31T02:33:10;9.67;;;8.67;;
13388;SDS011;6764;53.250;10.410;2023-08-31T02:35:36;8.27;;;7.47;;
13388;SDS011;6764;53.250;10.410;2023-08-31T02:38:01;8.77;;;7.77;;
13388;SDS011;6764;53.250;10.410;2023-08-31T02:40:27;8.27;;;7.53;;
13388;SDS011;6764;53.250;10.410;2023-08-31T02:42:53;9.07;;;7.80;;
13388;SDS011;6764;53.250;10.410;2023-08-31T02:45:19;9.33;;;8.17;;
13388;SDS011;6764;53.250;10.410;2023-08-31T02:47:44;8.77;;;7.80;;
13388;SDS011;6764;53.250;10.410;2023-08-31T02:50:10;8.93;;;8.00;;
13388;SDS011;6764;53.250;10.410;2023-08-31T02:52:35;9.63;;;7.77;;
13388;SDS011;6764;53.250;10.410;2023-08-31T02:55:01;9.27;;;8.17;;
13388;SDS011;6764;53.250;10.410;2023-08-31T02:57:27;9.37;;;7.33;;
13388;SDS011;6764;53.250;10.410;2023-08-31T02:59:52;8.27;;;7.40;;
13388;SDS011;6764;53.250;10.410;2023-08-31T03:02:18;7.87;;;7.07;;
13388;SDS011;6764;53.250;10.410;2023-08-31T03:04:44;7.97;;;7.13;;
13388;SDS011;6764;53.250;10.410;2023-08-31T03:07:09;10.57;;;7.23;;
13388;SDS011;6764;53.250;10.410;2023-08-31T03:09:38;9.93;;;6.90;;
13388;SDS011;6764;53.250;10.410;2023-08-31T03:12:04;10.17;;;7.07;;
13388;SDS011;6764;53.250;10.410;2023-08-31T03:14:30;7.87;;;6.43;;
13388;SDS011;6764;53.250;10.410;2023-08-31T03:16:56;9.70;;;6.37;;
13388;SDS011;6764;53.250;10.410;2023-08-31T03:19:21;7.73;;;6.80;;
13388;SDS011;6764;53.250;10.410;2023-08-31T03:21:47;6.97;;;6.27;;
13388;SDS011;6764;53.250;10.410;2023-08-31T03:24:13;6.70;;;5.97;;
13388;SDS011;6764;53.250;10.410;2023-08-31T03:26:38;7.23;;;6.20;;
13388;SDS011;6764;53.250;10.410;2023-08-31T03:29:04;7.50;;;5.90;;
13388;SDS011;6764;53.250;10.410;2023-08-31T03:31:30;7.63;;;6.40;;
13388;SDS011;6764;53.250;10.410;2023-08-31T03:33:56;8.47;;;6.83;;
13388;SDS011;6764;53.250;10.410;2023-08-31T03:36:21;8.87;;;6.50;;
13388;SDS011;6764;53.250;10.410;2023-08-31T03:38:47;9.40;;;5.80;;
13388;SDS011;6764;53.250;10.410;2023-08-31T03:41:13;7.67;;;5.93;;
13388;SDS011;6764;53.250;10.410;2023-08-31T03:43:38;6.73;;;5.80;;
13388;SDS011;6764;53.250;10.410;2023-08-31T03:46:04;8.37;;;6.03;;
13388;SDS011;6764;53.250;10.410;2023-08-31T03:48:29;10.07;;;6.30;;
13388;SDS011;6764;53.250;10.410;2023-08-31T03:50:55;6.27;;;5.60;;
13388;SDS011;6764;53.250;10.410;2023-08-31T03:53:21;8.20;;;5.37;;
13388;SDS011;6764;53.250;10.410;2023-08-31T03:55:46;6.93;;;4.90;;
13388;SDS011;6764;53.250;10.410;2023-08-31T03:58:12;6.50;;;4.50;;
13388;SDS011;6764;53.250;10.410;2023-08-31T04:00:38;6.33;;;4.97;;
13388;SDS011;6764;53.250;10.410;2023-08-31T04:03:04;6.53;;;5.40;;
13388;SDS011;6764;53.250;10.410;2023-08-31T04:05:33;6.90;;;5.47;;
13388;SDS011;6764;53.250;10.410;2023-08-31T04:08:00;7.90;;;5.10;;
13388;SDS011;6764;53.250;10.410;2023-08-31T04:10:26;5.80;;;5.20;;
13388;SDS011;6764;53.250;10.410;2023-08-31T04:12:52;7.10;;;4.70;;
13388;SDS011;6764;53.250;10.410;2023-08-31T04:15:18;9.57;;;5.27;;
13388;SDS011;6764;53.250;10.410;2023-08-31T04:17:44;5.20;;;4.43;;
13388;SDS011;6764;53.250;10.410;2023-08-31T04:20:10;5.50;;;5.00;;
13388;SDS011;6764;53.250;10.410;2023-08-31T04:22:36;7.53;;;5.30;;
13388;SDS011;6764;53.250;10.410;2023-08-31T04:25:02;7.67;;;4.73;;
13388;SDS011;6764;53.250;10.410;2023-08-31T04:27:28;7.13;;;4.80;;
13388;SDS011;6764;53.250;10.410;2023-08-31T04:29:56;8.00;;;4.90;;
13388;SDS011;6764;53.250;10.410;2023-08-31T04:32:23;6.20;;;4.90;;
13388;SDS011;6764;53.250;10.410;2023-08-31T04:34:50;9.70;;;5.30;;
13388;SDS011;6764;53.250;10.410;2023-08-31T04:37:16;7.77;;;5.10;;
13388;SDS011;6764;53.250;10.410;2023-08-31T04:39:42;7.80;;;5.30;;
13388;SDS011;6764;53.250;10.410;2023-08-31T04:42:07;6.47;;;5.03;;
13388;SDS011;6764;53.250;10.410;2023-08-31T04:44:33;6.43;;;5.13;;
13388;SDS011;6764;53.250;10.410;2023-08-31T04:46:59;9.17;;;5.10;;
13388;SDS011;6764;53.250;10.410;2023-08-31T04:49:25;5.40;;;4.70;;
13388;SDS011;6764;53.250;10.410;2023-08-31T04:51:51;6.07;;;5.47;;
13388;SDS011;6764;53.250;10.410;2023-08-31T04:54:17;8.40;;;6.13;;
13388;SDS011;6764;53.250;10.410;2023-08-31T04:56:43;6.43;;;5.83;;
13388;SDS011;6764;53.250;10.410;2023-08-31T04:59:09;7.90;;;5.63;;
13388;SDS011;6764;53.250;10.410;2023-08-31T05:01:35;12.60;;;6.20;;
13388;SDS011;6764;53.250;10.410;2023-08-31T05:04:00;9.80;;;5.60;;
13388;SDS011;6764;53.250;10.410;2023-08-31T05:06:27;11.10;;;6.63;;
13388;SDS011;6764;53.250;10.410;2023-08-31T05:08:53;7.17;;;5.67;;
13388;SDS011;6764;53.250;10.410;2023-08-31T05:11:18;7.20;;;6.00;;
13388;SDS011;6764;53.250;10.410;2023-08-31T05:13:44;10.93;;;6.33;;
13388;SDS011;6764;53.250;10.410;2023-08-31T05:16:09;11.20;;;6.00;;
13388;SDS011;6764;53.250;10.410;2023-08-31T05:18:36;7.33;;;6.03;;
13388;SDS011;6764;53.250;10.410;2023-08-31T05:21:03;10.07;;;6.13;;
13388;SDS011;6764;53.250;10.410;2023-08-31T05:23:29;6.93;;;6.30;;
13388;SDS011;6764;53.250;10.410;2023-08-31T05:25:55;7.03;;;6.33;;
13388;SDS011;6764;53.250;10.410;2023-08-31T05:28:22;6.37;;;5.77;;
13388;SDS011;6764;53.250;10.410;2023-08-31T05:30:51;6.70;;;6.03;;
13388;SDS011;6764;53.250;10.410;2023-08-31T05:33:18;7.10;;;5.87;;
13388;SDS011;6764;53.250;10.410;2023-08-31T05:35:44;7.47;;;5.90;;
13388;SDS011;6764;53.250;10.410;2023-08-31T05:38:10;7.73;;;6.40;;
13388;SDS011;6764;53.250;10.410;2023-08-31T05:40:36;8.60;;;6.00;;
13388;SDS011;6764;53.250;10.410;2023-08-31T05:43:02;11.73;;;6.80;;
13388;SDS011;6764;53.250;10.410;2023-08-31T05:45:31;10.60;;;6.00;;
13388;SDS011;6764;53.250;10.410;2023-08-31T05:47:57;7.83;;;6.13;;
13388;SDS011;6764;53.250;10.410;2023-08-31T05:50:23;9.20;;;6.13;;
13388;SDS011;6764;53.250;10.410;2023-08-31T05:52:49;8.87;;;6.43;;
13388;SDS011;6764;53.250;10.410;2023-08-31T05:55:14;8.63;;;5.60;;
13388;SDS011;6764;53.250;10.410;2023-08-31T05:57:40;7.93;;;5.70;;
13388;SDS011;6764;53.250;10.410;2023-08-31T06:00:05;8.63;;;5.67;;
13388;SDS011;6764;53.250;10.410;2023-08-31T06:02:34;8.33;;;6.00;;
13388;SDS011;6764;53.250;10.410;2023-08-31T06:05:00;11.30;;;5.63;;
13388;SDS011;6764;53.250;10.410;2023-08-31T06:07:27;6.23;;;5.27;;
13388;SDS011;6764;53.250;10.410;2023-08-31T06:09:54;10.23;;;4.90;;
13388;SDS011;6764;53.250;10.410;2023-08-31T06:12:20;6.47;;;5.30;;
13388;SDS011;6764;53.250;10.410;2023-08-31T06:14:45;9.33;;;5.40;;
13388;SDS011;6764;53.250;10.410;2023-08-31T06:17:11;7.93;;;5.40;;
13388;SDS011;6764;53.250;10.410;2023-08-31T06:19:38;5.70;;;5.10;;
13388;SDS011;6764;53.250;10.410;2023-08-31T06:22:06;7.83;;;4.90;;
13388;SDS011;6764;53.250;10.410;2023-08-31T06:24:32;6.38;;;3.95;;
13388;SDS011;6764;53.250;10.410;2023-08-31T06:26:59;6.00;;;3.45;;
13388;SDS011;6764;53.250;10.410;2023-08-31T06:29:25;5.55;;;4.30;;
13388;SDS011;6764;53.250;10.410;2023-08-31T06:31:51;4.50;;;3.50;;
13388;SDS011;6764;53.250;10.410;2023-08-31T06:34:17;4.28;;;3.60;;
13388;SDS011;6764;53.250;10.410;2023-08-31T06:36:42;4.63;;;3.53;;
13388;SDS011;6764;53.250;10.410;2023-08-31T06:39:08;5.68;;;3.28;;
13388;SDS011;6764;53.250;10.410;2023-08-31T06:41:34;4.57;;;3.38;;
13388;SDS011;6764;53.250;10.410;2023-08-31T06:43:59;5.82;;;3.28;;
13388;SDS011;6764;53.250;10.410;2023-08-31T06:46:26;6.30;;;3.42;;
13388;SDS011;6764;53.250;10.410;2023-08-31T06:48:53;5.25;;;3.15;;
13388;SDS011;6764;53.250;10.410;2023-08-31T06:51:19;4.18;;;3.15;;
13388;SDS011;6764;53.250;10.410;2023-08-31T06:53:44;5.63;;;3.22;;
13388;SDS011;6764;53.250;10.410;2023-08-31T06:56:11;5.45;;;3.22;;
13388;SDS011;6764;53.250;10.410;2023-08-31T06:58:36;5.60;;;3.28;;
13388;SDS011;6764;53.250;10.410;2023-08-31T07:01:05;4.60;;;2.75;;
13388;SDS011;6764;53.250;10.410;2023-08-31T07:03:31;5.35;;;3.00;;
13388;SDS011;6764;53.250;10.410;2023-08-31T07:05:56;8.15;;;3.35;;
13388;SDS011;6764;53.250;10.410;2023-08-31T07:08:22;4.47;;;2.80;;
13388;SDS011;6764;53.250;10.410;2023-08-31T07:10:51;4.93;;;2.88;;
13388;SDS011;6764;53.250;10.410;2023-08-31T07:13:17;2.80;;;2.47;;
13388;SDS011;6764;53.250;10.410;2023-08-31T07:15:42;5.40;;;3.15;;
13388;SDS011;6764;53.250;10.410;2023-08-31T07:18:08;3.63;;;2.80;;
13388;SDS011;6764;53.250;10.410;2023-08-31T07:20:34;4.88;;;2.63;;
13388;SDS011;6764;53.250;10.410;2023-08-31T07:22:59;3.42;;;2.70;;
13388;SDS011;6764;53.250;10.410;2023-08-31T07:25:25;3.17;;;2.53;;
13388;SDS011;6764;53.250;10.410;2023-08-31T07:27:50;4.32;;;2.65;;
13388;SDS011;6764;53.250;10.410;2023-08-31T07:30:17;2.85;;;2.60;;
13388;SDS011;6764;53.250;10.410;2023-08-31T07:32:43;3.88;;;2.35;;
13388;SDS011;6764;53.250;10.410;2023-08-31T07:35:08;4.82;;;2.80;;
13388;SDS011;6764;53.250;10.410;2023-08-31T07:37:34;3.45;;;2.22;;
13388;SDS011;6764;53.250;10.410;2023-08-31T07:40:00;3.83;;;2.92;;
13388;SDS011;6764;53.250;10.410;2023-08-31T07:42:26;3.55;;;2.90;;
13388;SDS011;6764;53.250;10.410;2023-08-31T07:44:51;5.40;;;3.13;;
13388;SDS011;6764;53.250;10.410;2023-08-31T07:47:17;3.28;;;2.33;;
13388;SDS011;6764;53.250;10.410;2023-08-31T07:49:42;2.78;;;1.90;;
13388;SDS011;6764;53.250;10.410;2023-08-31T07:52:09;3.65;;;1.95;;
13388;SDS011;6764;53.250;10.410;2023-08-31T07:54:34;4.18;;;2.00;;
13388;SDS011;6764;53.250;10.410;2023-08-31T07:57:00;2.63;;;2.17;;
13388;SDS011;6764;53.250;10.410;2023-08-31T07:59:26;3.45;;;2.30;;
13388;SDS011;6764;53.250;10.410;2023-08-31T08:01:52;4.10;;;2.30;;
13388;SDS011;6764;53.250;10.410;2023-08-31T08:04:18;4.82;;;2.10;;
13388;SDS011;6764;53.250;10.410;2023-08-31T08:06:44;5.47;;;2.25;;
13388;SDS011;6764;53.250;10.410;2023-08-31T08:09:10;3.72;;;1.98;;
13388;SDS011;6764;53.250;10.410;2023-08-31T08:11:37;4.13;;;2.67;;
13388;SDS011;6764;53.250;10.410;2023-08-31T08:14:03;3.50;;;2.60;;
13388;SDS011;6764;53.250;10.410;2023-08-31T08:16:28;5.28;;;2.80;;
13388;SDS011;6764;53.250;10.410;2023-08-31T08:18:54;3.85;;;3.08;;
13388;SDS011;6764;53.250;10.410;2023-08-31T08:21:20;5.68;;;3.10;;
13388;SDS011;6764;53.250;10.410;2023-08-31T08:23:45;3.72;;;3.17;;
13388;SDS011;6764;53.250;10.410;2023-08-31T08:26:11;4.18;;;3.10;;
13388;SDS011;6764;53.250;10.410;2023-08-31T08:28:37;7.47;;;3.88;;
13388;SDS011;6764;53.250;10.410;2023-08-31T08:31:02;5.93;;;3.47;;
13388;SDS011;6764;53.250;10.410;2023-08-31T08:33:29;3.97;;;3.10;;
13388;SDS011;6764;53.250;10.410;2023-08-31T08:35:56;3.90;;;2.78;;
13388;SDS011;6764;53.250;10.410;2023-08-31T08:38:22;6.30;;;3.28;;
13388;SDS011;6764;53.250;10.410;2023-08-31T08:40:47;3.53;;;2.13;;
13388;SDS011;6764;53.250;10.410;2023-08-31T08:43:13;4.43;;;2.30;;
13388;SDS011;6764;53.250;10.410;2023-08-31T08:45:39;2.80;;;2.60;;
13388;SDS011;6764;53.250;10.410;2023-08-31T08:48:07;3.70;;;1.92;;
13388;SDS011;6764;53.250;10.410;2023-08-31T08:50:34;4.20;;;2.10;;
13388;SDS011;6764;53.250;10.410;2023-08-31T08:53:01;4.30;;;1.70;;
13388;SDS011;6764;53.250;10.410;2023-08-31T08:55:27;2.33;;;1.90;;
13388;SDS011;6764;53.250;10.410;2023-08-31T08:57:53;3.10;;;1.85;;
13388;SDS011;6764;53.250;10.410;2023-08-31T09:00:19;3.80;;;2.10;;
13388;SDS011;6764;53.250;10.410;2023-08-31T09:02:45;2.20;;;1.83;;
13388;SDS011;6764;53.250;10.410;2023-08-31T09:05:11;4.55;;;2.28;;
13388;SDS011;6764;53.250;10.410;2023-08-31T09:07:37;2.38;;;1.30;;
13388;SDS011;6764;53.250;10.410;2023-08-31T09:10:03;2.55;;;1.92;;
13388;SDS011;6764;53.250;10.410;2023-08-31T09:12:30;1.75;;;1.52;;
13388;SDS011;6764;53.250;10.410;2023-08-31T09:15:05;4.68;;;1.63;;
13388;SDS011;6764;53.250;10.410;2023-08-31T09:17:38;3.50;;;2.10;;
13388;SDS011;6764;53.250;10.410;2023-08-31T09:20:05;3.78;;;1.90;;
13388;SDS011;6764;53.250;10.410;2023-08-31T09:22:32;3.20;;;1.60;;
13388;SDS011;6764;53.250;10.410;2023-08-31T09:24:59;2.88;;;2.00;;
13388;SDS011;6764;53.250;10.410;2023-08-31T09:27:24;4.40;;;1.65;;
13388;SDS011;6764;53.250;10.410;2023-08-31T09:29:50;4.20;;;1.67;;
13388;SDS011;6764;53.250;10.410;2023-08-31T09:32:19;2.80;;;1.50;;
13388;SDS011;6764;53.250;10.410;2023-08-31T09:34:45;3.00;;;1.75;;
13388;SDS011;6764;53.250;10.410;2023-08-31T09:37:11;3.10;;;1.50;;
13388;SDS011;6764;53.250;10.410;2023-08-31T09:39:37;3.78;;;1.73;;
13388;SDS011;6764;53.250;10.410;2023-08-31T09:42:04;2.47;;;1.70;;
13388;SDS011;6764;53.250;10.410;2023-08-31T09:44:31;2.10;;;1.80;;
13388;SDS011;6764;53.250;10.410;2023-08-31T09:46:57;4.72;;;2.67;;
13388;SDS011;6764;53.250;10.410;2023-08-31T09:49:23;3.75;;;2.17;;
13388;SDS011;6764;53.250;10.410;2023-08-31T09:51:50;4.53;;;2.42;;
13388;SDS011;6764;53.250;10.410;2023-08-31T09:54:17;3.85;;;2.20;;
13388;SDS011;6764;53.250;10.410;2023-08-31T09:56:46;2.58;;;2.25;;
13388;SDS011;6764;53.250;10.410;2023-08-31T09:59:13;2.80;;;2.05;;
13388;SDS011;6764;53.250;10.410;2023-08-31T10:01:40;3.17;;;2.30;;
13388;SDS011;6764;53.250;10.410;2023-08-31T10:04:07;3.88;;;1.88;;
13388;SDS011;6764;53.250;10.410;2023-08-31T10:06:40;4.13;;;3.45;;
13388;SDS011;6764;53.250;10.410;2023-08-31T10:09:08;3.85;;;1.63;;
13388;SDS011;6764;53.250;10.410;2023-08-31T10:11:34;2.08;;;1.58;;
13388;SDS011;6764;53.250;10.410;2023-08-31T10:14:02;2.13;;;1.33;;
13388;SDS011;6764;53.250;10.410;2023-08-31T10:16:29;3.28;;;1.58;;
13388;SDS011;6764;53.250;10.410;2023-08-31T10:18:55;1.40;;;1.20;;
13388;SDS011;6764;53.250;10.410;2023-08-31T10:21:21;1.52;;;1.30;;
13388;SDS011;6764;53.250;10.410;2023-08-31T10:23:48;2.90;;;2.33;;
13388;SDS011;6764;53.250;10.410;2023-08-31T10:26:24;2.00;;;1.50;;
13388;SDS011;6764;53.250;10.410;2023-08-31T10:28:51;2.08;;;1.48;;
13388;SDS011;6764;53.250;10.410;2023-08-31T10:31:17;3.75;;;1.67;;
13388;SDS011;6764;53.250;10.410;2023-08-31T10:33:45;2.22;;;1.58;;
13388;SDS011;6764;53.250;10.410;2023-08-31T10:36:18;4.88;;;2.58;;
13388;SDS011;6764;53.250;10.410;2023-08-31T10:38:47;4.70;;;2.60;;
13388;SDS011;6764;53.250;10.410;2023-08-31T10:41:25;2.10;;;1.90;;
13388;SDS011;6764;53.250;10.410;2023-08-31T10:43:56;2.47;;;1.90;;
13388;SDS011;6764;53.250;10.410;2023-08-31T10:51:35;2.35;;;1.80;;
13388;SDS011;6764;53.250;10.410;2023-08-31T10:54:22;3.70;;;2.20;;
13388;SDS011;6764;53.250;10.410;2023-08-31T10:59:24;2.67;;;2.30;;
13388;SDS011;6764;53.250;10.410;2023-08-31T11:04:28;2.42;;;1.80;;
13388;SDS011;6764;53.250;10.410;2023-08-31T11:07:14;2.05;;;1.77;;
13388;SDS011;6764;53.250;10.410;2023-08-31T11:09:44;3.47;;;2.53;;
13388;SDS011;6764;53.250;10.410;2023-08-31T11:12:10;1.88;;;1.65;;
13388;SDS011;6764;53.250;10.410;2023-08-31T11:14:37;2.47;;;1.58;;
13388;SDS011;6764;53.250;10.410;2023-08-31T11:17:03;4.15;;;1.98;;
13388;SDS011;6764;53.250;10.410;2023-08-31T11:19:30;2.75;;;1.38;;
13388;SDS011;6764;53.250;10.410;2023-08-31T11:21:56;1.90;;;1.52;;
13388;SDS011;6764;53.250;10.410;2023-08-31T11:24:22;2.72;;;1.65;;
13388;SDS011;6764;53.250;10.410;2023-08-31T11:26:51;3.67;;;1.70;;
13388;SDS011;6764;53.250;10.410;2023-08-31T11:29:19;1.95;;;1.60;;
13388;SDS011;6764;53.250;10.410;2023-08-31T11:31:44;2.15;;;1.50;;
13388;SDS011;6764;53.250;10.410;2023-08-31T11:34:17;2.55;;;1.55;;
13388;SDS011;6764;53.250;10.410;2023-08-31T11:36:44;1.67;;;1.50;;
13388;SDS011;6764;53.250;10.410;2023-08-31T11:39:11;2.22;;;1.60;;
13388;SDS011;6764;53.250;10.410;2023-08-31T11:41:38;1.77;;;1.40;;
13388;SDS011;6764;53.250;10.410;2023-08-31T11:44:07;1.95;;;1.35;;
13388;SDS011;6764;53.250;10.410;2023-08-31T11:46:35;1.40;;;1.30;;
13388;SDS011;6764;53.250;10.410;2023-08-31T11:49:01;1.42;;;1.33;;
13388;SDS011;6764;53.250;10.410;2023-08-31T11:51:29;3.08;;;2.25;;
13388;SDS011;6764;53.250;10.410;2023-08-31T11:53:56;1.83;;;1.40;;
13388;SDS011;6764;53.250;10.410;2023-08-31T11:56:23;1.67;;;1.40;;
13388;SDS011;6764;53.250;10.410;2023-08-31T11:58:50;2.22;;;1.40;;
13388;SDS011;6764;53.250;10.410;2023-08-31T12:01:22;1.35;;;1.25;;
13388;SDS011;6764;53.250;10.410;2023-08-31T12:03:48;2.13;;;1.42;;
13388;SDS011;6764;53.250;10.410;2023-08-31T12:06:15;1.80;;;1.63;;
13388;SDS011;6764;53.250;10.410;2023-08-31T12:08:42;1.48;;;1.38;;
13388;SDS011;6764;53.250;10.410;2023-08-31T12:11:07;2.33;;;1.77;;
13388;SDS011;6764;53.250;10.410;2023-08-31T12:13:33;4.00;;;1.88;;
13388;SDS011;6764;53.250;10.410;2023-08-31T12:15:59;2.00;;;1.77;;
13388;SDS011;6764;53.250;10.410;2023-08-31T12:18:28;1.73;;;1.40;;
13388;SDS011;6764;53.250;10.410;2023-08-31T12:20:58;3.05;;;2.00;;
13388;SDS011;6764;53.250;10.410;2023-08-31T12:23:24;4.00;;;2.30;;
13388;SDS011;6764;53.250;10.410;2023-08-31T12:25:51;2.92;;;2.20;;
13388;SDS011;6764;53.250;10.410;2023-08-31T12:28:18;4.90;;;2.78;;
13388;SDS011;6764;53.250;10.410;2023-08-31T12:30:47;2.80;;;2.40;;
13388;SDS011;6764;53.250;10.410;2023-08-31T12:33:13;4.30;;;2.30;;
13388;SDS011;6764;53.250;10.410;2023-08-31T12:35:39;5.28;;;2.63;;
13388;SDS011;6764;53.250;10.410;2023-08-31T12:38:05;2.50;;;2.08;;
13388;SDS011;6764;53.250;10.410;2023-08-31T12:40:30;2.80;;;1.85;;
13388;SDS011;6764;53.250;10.410;2023-08-31T12:42:56;2.13;;;1.80;;
13388;SDS011;6764;53.250;10.410;2023-08-31T12:45:22;3.03;;;2.00;;
13388;SDS011;6764;53.250;10.410;2023-08-31T12:47:47;2.28;;;2.08;;
13388;SDS011;6764;53.250;10.410;2023-08-31T12:50:13;2.47;;;2.00;;
13388;SDS011;6764;53.250;10.410;2023-08-31T12:52:39;2.50;;;1.52;;
13388;SDS011;6764;53.250;10.410;2023-08-31T12:55:09;2.28;;;1.90;;
13388;SDS011;6764;53.250;10.410;2023-08-31T12:57:35;2.85;;;2.28;;
13388;SDS011;6764;53.250;10.410;2023-08-31T13:00:01;2.63;;;2.10;;
13388;SDS011;6764;53.250;10.410;2023-08-31T13:02:31;3.40;;;2.25;;
13388;SDS011;6764;53.250;10.410;2023-08-31T13:04:57;2.85;;;2.55;;
13388;SDS011;6764;53.250;10.410;2023-08-31T13:07:22;2.85;;;1.80;;
13388;SDS011;6764;53.250;10.410;2023-08-31T13:09:48;2.60;;;1.80;;
13388;SDS011;6764;53.250;10.410;2023-08-31T13:12:13;2.40;;;1.80;;
13388;SDS011;6764;53.250;10.410;2023-08-31T13:14:39;1.75;;;1.65;;
13388;SDS011;6764;53.250;10.410;2023-08-31T13:17:05;2.55;;;2.03;;
13388;SDS011;6764;53.250;10.410;2023-08-31T13:19:31;3.70;;;2.45;;
13388;SDS011;6764;53.250;10.410;2023-08-31T13:21:56;2.15;;;1.83;;
13388;SDS011;6764;53.250;10.410;2023-08-31T13:24:22;2.67;;;1.80;;
13388;SDS011;6764;53.250;10.410;2023-08-31T13:26:48;4.32;;;1.65;;
13388;SDS011;6764;53.250;10.410;2023-08-31T13:29:14;2.80;;;1.42;;
13388;SDS011;6764;53.250;10.410;2023-08-31T13:31:40;1.73;;;1.60;;
13388;SDS011;6764;53.250;10.410;2023-08-31T13:34:05;2.17;;;1.40;;
13388;SDS011;6764;53.250;10.410;2023-08-31T13:36:35;1.58;;;1.48;;
13388;SDS011;6764;53.250;10.410;2023-08-31T13:39:01;5.03;;;1.90;;
13388;SDS011;6764;53.250;10.410;2023-08-31T13:41:28;2.13;;;1.38;;
13388;SDS011;6764;53.250;10.410;2023-08-31T13:43:55;2.83;;;1.83;;
13388;SDS011;6764;53.250;10.410;2023-08-31T13:46:20;4.13;;;2.92;;
13388;SDS011;6764;53.250;10.410;2023-08-31T13:48:46;4.30;;;1.70;;
13388;SDS011;6764;53.250;10.410;2023-08-31T13:51:13;2.45;;;1.30;;
13388;SDS011;6764;53.250;10.410;2023-08-31T13:53:38;4.28;;;2.10;;
13388;SDS011;6764;53.250;10.410;2023-08-31T13:56:04;1.95;;;1.40;;
13388;SDS011;6764;53.250;10.410;2023-08-31T13:58:30;1.25;;;1.15;;
13388;SDS011;6764;53.250;10.410;2023-08-31T14:00:55;3.25;;;2.80;;
13388;SDS011;6764;53.250;10.410;2023-08-31T14:03:21;4.03;;;3.25;;
13388;SDS011;6764;53.250;10.410;2023-08-31T14:05:49;2.88;;;1.70;;
13388;SDS011;6764;53.250;10.410;2023-08-31T14:08:15;3.83;;;1.80;;
13388;SDS011;6764;53.250;10.410;2023-08-31T14:10:41;2.45;;;1.98;;
13388;SDS011;6764;53.250;10.410;2023-08-31T14:13:07;1.52;;;1.42;;
13388;SDS011;6764;53.250;10.410;2023-08-31T14:15:32;1.30;;;1.20;;
13388;SDS011;6764;53.250;10.410;2023-08-31T14:17:58;2.53;;;1.70;;
13388;SDS011;6764;53.250;10.410;2023-08-31T14:20:24;3.42;;;1.73;;
13388;SDS011;6764;53.250;10.410;2023-08-31T14:22:49;6.25;;;2.22;;
13388;SDS011;6764;53.250;10.410;2023-08-31T14:25:15;2.03;;;1.48;;
13388;SDS011;6764;53.250;10.410;2023-08-31T14:27:42;2.65;;;1.63;;
13388;SDS011;6764;53.250;10.410;2023-08-31T14:30:07;3.30;;;1.55;;
13388;SDS011;6764;53.250;10.410;2023-08-31T14:32:34;2.03;;;1.50;;
13388;SDS011;6764;53.250;10.410;2023-08-31T14:34:59;1.98;;;1.45;;
13388;SDS011;6764;53.250;10.410;2023-08-31T14:37:25;2.17;;;1.98;;
13388;SDS011;6764;53.250;10.410;2023-08-31T14:39:51;2.00;;;1.77;;
13388;SDS011;6764;53.250;10.410;2023-08-31T14:42:17;1.83;;;1.58;;
13388;SDS011;6764;53.250;10.410;2023-08-31T14:44:45;2.17;;;1.42;;
13388;SDS011;6764;53.250;10.410;2023-08-31T14:47:11;2.13;;;1.30;;
13388;SDS011;6764;53.250;10.410;2023-08-31T14:49:38;2.25;;;1.30;;
13388;SDS011;6764;53.250;10.410;2023-08-31T14:52:05;1.75;;;1.50;;
13388;SDS011;6764;53.250;10.410;2023-08-31T14:54:31;1.73;;;1.38;;
13388;SDS011;6764;53.250;10.410;2023-08-31T14:56:58;4.72;;;2.83;;
13388;SDS011;6764;53.250;10.410;2023-08-31T14:59:24;1.48;;;1.38;;
13388;SDS011;6764;53.250;10.410;2023-08-31T15:01:50;4.95;;;1.60;;
13388;SDS011;6764;53.250;10.410;2023-08-31T15:04:16;3.42;;;1.50;;